To NAV CANADA Home Page Login to a new session Search on AWWS site Disclaimer Vers la page française équivalente Tips FAQ What's new on the site To the Forecasts and Observations / NOTAM section To "File a Flight Plan" website Publications and other links Update of the User's profile FIC Telephone Numbers My Weather Data Folder Route Weather Data Regional Weather Data Local Weather Data To the Forecasts and Observations / NOTAM section
Request Generated 12/16/2017 at 09:12:00 UTC . Weather information available at that time is displayed.

METAR/TAF

If you find any discrepancies between the coded METAR/TAF and the plain language METAR/TAF please use the coded METAR/TAF. LWIS bulletins are not decoded in plain language.

CALGARY/SPRINGBANK/AB    (show WxCam)

METAR CYBW 160900Z AUTO VRB02KT 9SM SCT034 SCT065 BKN080 OVC098 M02/M06 A2987 RMK SLP161=
METAR
LOCATION
CYBW - CALGARY/SPRINGBANK/AB
DATE - TIME
16 DECEMBER 2017 - 0900 UTC
WIND
VRB @ 2  KNOTS
VISIBILITY
9 STAT.  MILES
RUNWAY VISUAL RANGE
WEATHER
CLOUDINESS
SCATTERED CLOUDS (3/8 - 4/8) 3400  FT
SCATTERED CLOUDS (3/8 - 4/8) 6500  FT
BROKEN CLOUDS (5/8 - 7/8) 8000  FT
OVERCAST 9800  FT
TEMP / DEWPOINT
-2 C / -6 C
ALTIMETER
29.87 IN HG
RECENT WEATHER
WIND SHEAR

SPECI CYBW 160858Z AUTO 00000KT 9SM SCT034 BKN065 BKN081 OVC098 M02/M06 A2987 RMK SLP156=
SPECI
LOCATION
CYBW - CALGARY/SPRINGBANK/AB
DATE - TIME
16 DECEMBER 2017 - 0858 UTC
WIND
CALM
VISIBILITY
9 STAT.  MILES
RUNWAY VISUAL RANGE
WEATHER
CLOUDINESS
SCATTERED CLOUDS (3/8 - 4/8) 3400  FT
BROKEN CLOUDS (5/8 - 7/8) 6500  FT
BROKEN CLOUDS (5/8 - 7/8) 8100  FT
OVERCAST 9800  FT
TEMP / DEWPOINT
-2 C / -6 C
ALTIMETER
29.87 IN HG
RECENT WEATHER
WIND SHEAR

SPECI CYBW 160846Z AUTO 25003KT 6SM -SN SCT033 OVC060 M03/M05 A2987 RMK SLP156=
SPECI
LOCATION
CYBW - CALGARY/SPRINGBANK/AB
DATE - TIME
16 DECEMBER 2017 - 0846 UTC
WIND
250 TRUE @ 3  KNOTS
VISIBILITY
6 STAT.  MILES
RUNWAY VISUAL RANGE
WEATHER
LIGHT SNOW
CLOUDINESS
SCATTERED CLOUDS (3/8 - 4/8) 3300  FT
OVERCAST 6000  FT
TEMP / DEWPOINT
-3 C / -5 C
ALTIMETER
29.87 IN HG
RECENT WEATHER
WIND SHEAR

SPECI CYBW 160841Z AUTO 27004KT 240V320 5SM -SN BKN033 OVC060 M04/M05 A2987 RMK SLP159=
SPECI
LOCATION
CYBW - CALGARY/SPRINGBANK/AB
DATE - TIME
16 DECEMBER 2017 - 0841 UTC
WIND
270 TRUE @ 4  KNOTS
VARIATION
240 <-> 320  DEG
VISIBILITY
5 STAT.  MILES
RUNWAY VISUAL RANGE
WEATHER
LIGHT SNOW
CLOUDINESS
BROKEN CLOUDS (5/8 - 7/8) 3300  FT
OVERCAST 6000  FT
TEMP / DEWPOINT
-4 C / -5 C
ALTIMETER
29.87 IN HG
RECENT WEATHER
WIND SHEAR

SPECI CYBW 160834Z AUTO 31009KT 9SM -SN SCT040 BKN060 OVC088 M04/M06 A2987 RMK SLP158=
SPECI
LOCATION
CYBW - CALGARY/SPRINGBANK/AB
DATE - TIME
16 DECEMBER 2017 - 0834 UTC
WIND
310 TRUE @ 9  KNOTS
VISIBILITY
9 STAT.  MILES
RUNWAY VISUAL RANGE
WEATHER
LIGHT SNOW
CLOUDINESS
SCATTERED CLOUDS (3/8 - 4/8) 4000  FT
BROKEN CLOUDS (5/8 - 7/8) 6000  FT
OVERCAST 8800  FT
TEMP / DEWPOINT
-4 C / -6 C
ALTIMETER
29.87 IN HG
RECENT WEATHER
WIND SHEAR

METAR CYBW 160800Z AUTO 31003KT 9SM SCT060 OVC087 M05/M06 A2985 RMK SLP154=
METAR
LOCATION
CYBW - CALGARY/SPRINGBANK/AB
DATE - TIME
16 DECEMBER 2017 - 0800 UTC
WIND
310 TRUE @ 3  KNOTS
VISIBILITY
9 STAT.  MILES
RUNWAY VISUAL RANGE
WEATHER
CLOUDINESS
SCATTERED CLOUDS (3/8 - 4/8) 6000  FT
OVERCAST 8700  FT
TEMP / DEWPOINT
-5 C / -6 C
ALTIMETER
29.85 IN HG
RECENT WEATHER
WIND SHEAR

METAR CYBW 160700Z AUTO 27005KT 250V350 9SM BKN080 M06/M06 A2984 RMK SLP152=
METAR
LOCATION
CYBW - CALGARY/SPRINGBANK/AB
DATE - TIME
16 DECEMBER 2017 - 0700 UTC
WIND
270 TRUE @ 5  KNOTS
VARIATION
250 <-> 350  DEG
VISIBILITY
9 STAT.  MILES
RUNWAY VISUAL RANGE
WEATHER
CLOUDINESS
BROKEN CLOUDS (5/8 - 7/8) 8000  FT
TEMP / DEWPOINT
-6 C / -6 C
ALTIMETER
29.84 IN HG
RECENT WEATHER
WIND SHEAR

*** REMARK        : Forecast period has ended; this was the last TAF issued
TAF CYBW 152338Z 1600/1605 VRB03KT P6SM SKC RMK FCST BASED ON AUTO OBS. NXT FCST WILL BE ISSUED AT 161245Z=
TAF
LOCATION

CYBW - CALGARY/SPRINGBANK/AB
VALIDITY [UTC]
15 DEC - 2338 to
16 DEC - 0500
 
TIMES
[UTC]
WIND
[DEGREES TRUE]
VISIBILITY
[STAT. MILES]
WEATHER
CLOUDINESS
[FEET AGL]
 
16 DEC - 0000 to
16 DEC - 0500
VARIABLE @ 3 KNOTS
6+
NIL
CLEAR SKY
REMARKS
THE FORECAST IS BASED ON AUTOMATIC OBSERVATIONS - THE NEXT FORECAST WILL BE ISSUED AT 1245 UTC ON DAY 16


Your time UTC time
Weather data provided by Environment Canada and NAV CANADA